sensor_id;sensor_type;location;lat;lon;timestamp;temperature;humidity
7796;DHT22;3942;51.518;6.912;2022-10-03T00:02:48;12.30;99.90
7796;DHT22;3942;51.518;6.912;2022-10-03T00:08:01;12.30;99.90
7796;DHT22;3942;51.518;6.912;2022-10-03T00:13:15;12.30;99.90
7796;DHT22;3942;51.518;6.912;2022-10-03T00:18:34;12.20;99.90
7796;DHT22;3942;51.518;6.912;2022-10-03T00:28:50;12.20;99.90
7796;DHT22;3942;51.518;6.912;2022-10-03T00:34:04;11.90;99.90
7796;DHT22;3942;51.518;6.912;2022-10-03T00:39:36;12.20;99.90
7796;DHT22;3942;51.518;6.912;2022-10-03T00:56:05;12.10;99.90
7796;DHT22;3942;51.518;6.912;2022-10-03T01:01:23;12.10;99.90
7796;DHT22;3942;51.518;6.912;2022-10-03T01:06:39;12.00;99.90
7796;DHT22;3942;51.518;6.912;2022-10-03T01:11:56;12.00;99.90
7796;DHT22;3942;51.518;6.912;2022-10-03T01:17:09;11.90;99.90
7796;DHT22;3942;51.518;6.912;2022-10-03T01:22:32;12.00;99.90
7796;DHT22;3942;51.518;6.912;2022-10-03T01:27:46;11.70;99.90
7796;DHT22;3942;51.518;6.912;2022-10-03T01:38:26;11.80;99.90
7796;DHT22;3942;51.518;6.912;2022-10-03T01:43:35;11.70;99.90
7796;DHT22;3942;51.518;6.912;2022-10-03T01:48:47;11.80;99.90
7796;DHT22;3942;51.518;6.912;2022-10-03T01:54:05;11.60;99.90
7796;DHT22;3942;51.518;6.912;2022-10-03T02:04:27;11.80;99.90
7796;DHT22;3942;51.518;6.912;2022-10-03T02:09:37;11.70;99.90
7796;DHT22;3942;51.518;6.912;2022-10-03T02:14:47;11.60;99.90
7796;DHT22;3942;51.518;6.912;2022-10-03T02:20:05;11.70;99.90
7796;DHT22;3942;51.518;6.912;2022-10-03T02:25:26;11.70;99.90
7796;DHT22;3942;51.518;6.912;2022-10-03T02:30:38;11.70;99.90
7796;DHT22;3942;51.518;6.912;2022-10-03T02:41:41;11.70;99.90
7796;DHT22;3942;51.518;6.912;2022-10-03T02:58:43;11.60;99.90
7796;DHT22;3942;51.518;6.912;2022-10-03T03:15:45;11.50;99.90
7796;DHT22;3942;51.518;6.912;2022-10-03T03:26:16;11.50;99.90
7796;DHT22;3942;51.518;6.912;2022-10-03T03:31:30;11.50;99.90
7796;DHT22;3942;51.518;6.912;2022-10-03T03:36:37;11.50;99.90
7796;DHT22;3942;51.518;6.912;2022-10-03T03:41:59;11.40;99.90
7796;DHT22;3942;51.518;6.912;2022-10-03T03:47:12;11.50;99.90
7796;DHT22;3942;51.518;6.912;2022-10-03T03:52:32;11.40;99.90
7796;DHT22;3942;51.518;6.912;2022-10-03T03:58:05;11.40;99.90
7796;DHT22;3942;51.518;6.912;2022-10-03T04:18:58;11.50;99.90
7796;DHT22;3942;51.518;6.912;2022-10-03T04:24:16;11.40;99.90
7796;DHT22;3942;51.518;6.912;2022-10-03T04:29:36;11.50;99.90
7796;DHT22;3942;51.518;6.912;2022-10-03T04:34:56;11.30;99.90
7796;DHT22;3942;51.518;6.912;2022-10-03T04:40:17;11.40;99.90
7796;DHT22;3942;51.518;6.912;2022-10-03T04:45:39;11.40;99.90
7796;DHT22;3942;51.518;6.912;2022-10-03T04:50:59;11.50;99.90
7796;DHT22;3942;51.518;6.912;2022-10-03T04:56:15;11.40;99.90
7796;DHT22;3942;51.518;6.912;2022-10-03T05:01:23;11.80;99.90
7796;DHT22;3942;51.518;6.912;2022-10-03T05:06:41;11.50;99.90
7796;DHT22;3942;51.518;6.912;2022-10-03T05:11:57;11.50;99.90
7796;DHT22;3942;51.518;6.912;2022-10-03T05:17:08;11.60;99.90
7796;DHT22;3942;51.518;6.912;2022-10-03T05:22:24;11.50;99.90
7796;DHT22;3942;51.518;6.912;2022-10-03T05:27:34;11.50;99.90
7796;DHT22;3942;51.518;6.912;2022-10-03T05:32:41;11.60;99.90
7796;DHT22;3942;51.518;6.912;2022-10-03T05:38:03;11.60;99.90
7796;DHT22;3942;51.518;6.912;2022-10-03T05:43:22;11.60;99.90
7796;DHT22;3942;51.518;6.912;2022-10-03T05:48:32;11.60;99.90
7796;DHT22;3942;51.518;6.912;2022-10-03T05:59:58;11.70;99.90
7796;DHT22;3942;51.518;6.912;2022-10-03T06:05:15;11.80;99.90
7796;DHT22;3942;51.518;6.912;2022-10-03T06:10:43;11.80;99.90
7796;DHT22;3942;51.518;6.912;2022-10-03T06:16:06;11.90;99.90
7796;DHT22;3942;51.518;6.912;2022-10-03T06:21:37;11.90;99.90
7796;DHT22;3942;51.518;6.912;2022-10-03T06:43:53;12.10;99.90
7796;DHT22;3942;51.518;6.912;2022-10-03T06:55:06;13.00;99.90
7796;DHT22;3942;51.518;6.912;2022-10-03T07:00:17;12.90;99.90
7796;DHT22;3942;51.518;6.912;2022-10-03T07:11:18;13.00;99.90
7796;DHT22;3942;51.518;6.912;2022-10-03T07:22:52;13.50;99.90
7796;DHT22;3942;51.518;6.912;2022-10-03T07:28:31;13.10;99.90
7796;DHT22;3942;51.518;6.912;2022-10-03T07:45:29;13.70;99.90
7796;DHT22;3942;51.518;6.912;2022-10-03T08:01:46;13.50;99.90
7796;DHT22;3942;51.518;6.912;2022-10-03T08:07:07;13.90;99.90
7796;DHT22;3942;51.518;6.912;2022-10-03T08:18:30;15.10;99.90
7796;DHT22;3942;51.518;6.912;2022-10-03T08:24:07;15.20;99.90
7796;DHT22;3942;51.518;6.912;2022-10-03T08:29:16;15.00;99.90
7796;DHT22;3942;51.518;6.912;2022-10-03T08:34:59;15.50;99.90
7796;DHT22;3942;51.518;6.912;2022-10-03T08:40:38;16.00;99.90
7796;DHT22;3942;51.518;6.912;2022-10-03T08:57:20;17.60;99.90
7796;DHT22;3942;51.518;6.912;2022-10-03T09:08:03;18.40;1.00
7796;DHT22;3942;51.518;6.912;2022-10-03T09:19:00;18.70;1.00
7796;DHT22;3942;51.518;6.912;2022-10-03T09:24:19;18.60;99.90
7796;DHT22;3942;51.518;6.912;2022-10-03T09:29:51;18.80;97.50
7796;DHT22;3942;51.518;6.912;2022-10-03T09:35:35;18.70;1.00
7796;DHT22;3942;51.518;6.912;2022-10-03T09:41:09;19.60;99.90
7796;DHT22;3942;51.518;6.912;2022-10-03T09:46:41;20.10;1.00
7796;DHT22;3942;51.518;6.912;2022-10-03T09:52:28;20.70;99.90
7796;DHT22;3942;51.518;6.912;2022-10-03T09:57:56;21.20;1.00
7796;DHT22;3942;51.518;6.912;2022-10-03T10:03:32;21.60;99.90
7796;DHT22;3942;51.518;6.912;2022-10-03T10:15:03;22.10;99.90
7796;DHT22;3942;51.518;6.912;2022-10-03T10:31:35;19.60;99.90
7796;DHT22;3942;51.518;6.912;2022-10-03T11:27:32;19.10;99.90
7796;DHT22;3942;51.518;6.912;2022-10-03T11:38:26;18.70;99.90
7796;DHT22;3942;51.518;6.912;2022-10-03T11:43:58;18.50;99.90
7796;DHT22;3942;51.518;6.912;2022-10-03T11:49:09;18.60;1.00
7796;DHT22;3942;51.518;6.912;2022-10-03T11:54:21;18.50;1.00
7796;DHT22;3942;51.518;6.912;2022-10-03T11:59:55;18.30;99.90
7796;DHT22;3942;51.518;6.912;2022-10-03T12:05:03;18.20;1.00
7796;DHT22;3942;51.518;6.912;2022-10-03T12:10:16;18.00;1.00
7796;DHT22;3942;51.518;6.912;2022-10-03T12:15:31;18.00;1.00
7796;DHT22;3942;51.518;6.912;2022-10-03T12:21:07;18.00;1.00
7796;DHT22;3942;51.518;6.912;2022-10-03T12:26:15;18.20;1.00
7796;DHT22;3942;51.518;6.912;2022-10-03T12:31:24;18.30;99.90
7796;DHT22;3942;51.518;6.912;2022-10-03T12:36:30;18.20;99.90
7796;DHT22;3942;51.518;6.912;2022-10-03T12:41:55;18.20;99.90
7796;DHT22;3942;51.518;6.912;2022-10-03T12:47:10;18.20;99.90
7796;DHT22;3942;51.518;6.912;2022-10-03T12:57:51;18.20;99.90
7796;DHT22;3942;51.518;6.912;2022-10-03T13:03:05;18.20;99.90
7796;DHT22;3942;51.518;6.912;2022-10-03T13:08:20;18.30;99.90
7796;DHT22;3942;51.518;6.912;2022-10-03T13:13:30;18.10;99.90
7796;DHT22;3942;51.518;6.912;2022-10-03T13:18:43;18.20;99.90
7796;DHT22;3942;51.518;6.912;2022-10-03T13:23:50;18.10;99.90
7796;DHT22;3942;51.518;6.912;2022-10-03T13:29:13;18.20;99.90
7796;DHT22;3942;51.518;6.912;2022-10-03T13:34:20;18.00;99.90
7796;DHT22;3942;51.518;6.912;2022-10-03T13:39:26;17.80;99.90
7796;DHT22;3942;51.518;6.912;2022-10-03T13:44:35;17.70;99.90
7796;DHT22;3942;51.518;6.912;2022-10-03T13:55:04;18.00;1.00
7796;DHT22;3942;51.518;6.912;2022-10-03T14:00:11;18.00;1.00
7796;DHT22;3942;51.518;6.912;2022-10-03T14:05:39;17.80;99.90
7796;DHT22;3942;51.518;6.912;2022-10-03T14:11:03;17.90;99.90
7796;DHT22;3942;51.518;6.912;2022-10-03T14:16:13;17.90;99.90
7796;DHT22;3942;51.518;6.912;2022-10-03T14:26:36;18.10;99.90
7796;DHT22;3942;51.518;6.912;2022-10-03T14:31:47;17.90;99.90
7796;DHT22;3942;51.518;6.912;2022-10-03T14:37:11;17.70;99.90
7796;DHT22;3942;51.518;6.912;2022-10-03T14:53:15;17.40;1.00
7796;DHT22;3942;51.518;6.912;2022-10-03T15:03:28;17.40;1.00
7796;DHT22;3942;51.518;6.912;2022-10-03T15:08:36;17.50;1.00
7796;DHT22;3942;51.518;6.912;2022-10-03T15:13:42;17.50;98.80
7796;DHT22;3942;51.518;6.912;2022-10-03T15:23:57;17.50;99.90
7796;DHT22;3942;51.518;6.912;2022-10-03T15:29:03;17.30;99.30
7796;DHT22;3942;51.518;6.912;2022-10-03T15:34:15;17.30;99.90
7796;DHT22;3942;51.518;6.912;2022-10-03T15:39:23;17.30;99.90
7796;DHT22;3942;51.518;6.912;2022-10-03T15:44:29;17.40;99.90
7796;DHT22;3942;51.518;6.912;2022-10-03T15:49:45;17.30;99.90
7796;DHT22;3942;51.518;6.912;2022-10-03T15:59:57;17.30;1.00
7796;DHT22;3942;51.518;6.912;2022-10-03T16:05:02;17.40;1.00
7796;DHT22;3942;51.518;6.912;2022-10-03T16:10:17;17.20;1.00
7796;DHT22;3942;51.518;6.912;2022-10-03T16:15:24;17.20;58.20
7796;DHT22;3942;51.518;6.912;2022-10-03T16:20:31;17.00;99.90
7796;DHT22;3942;51.518;6.912;2022-10-03T16:30:49;16.90;1.00
7796;DHT22;3942;51.518;6.912;2022-10-03T16:35:56;16.90;99.90
7796;DHT22;3942;51.518;6.912;2022-10-03T16:41:05;16.80;1.00
7796;DHT22;3942;51.518;6.912;2022-10-03T16:51:20;16.80;1.00
7796;DHT22;3942;51.518;6.912;2022-10-03T16:56:26;16.70;99.90
7796;DHT22;3942;51.518;6.912;2022-10-03T17:01:31;16.70;1.00
7796;DHT22;3942;51.518;6.912;2022-10-03T17:06:35;16.50;1.00
7796;DHT22;3942;51.518;6.912;2022-10-03T17:11:41;16.40;1.00
7796;DHT22;3942;51.518;6.912;2022-10-03T17:16:50;16.20;99.90
7796;DHT22;3942;51.518;6.912;2022-10-03T17:27:00;16.00;46.70
7796;DHT22;3942;51.518;6.912;2022-10-03T17:32:13;16.00;1.00
7796;DHT22;3942;51.518;6.912;2022-10-03T17:37:51;15.90;99.90
7796;DHT22;3942;51.518;6.912;2022-10-03T17:42:58;15.70;99.90
7796;DHT22;3942;51.518;6.912;2022-10-03T17:48:11;15.70;1.00
7796;DHT22;3942;51.518;6.912;2022-10-03T17:53:19;15.60;99.90
7796;DHT22;3942;51.518;6.912;2022-10-03T17:58:26;15.40;99.90
7796;DHT22;3942;51.518;6.912;2022-10-03T18:03:33;15.40;99.90
7796;DHT22;3942;51.518;6.912;2022-10-03T18:08:38;15.30;99.90
7796;DHT22;3942;51.518;6.912;2022-10-03T18:13:43;15.20;99.90
7796;DHT22;3942;51.518;6.912;2022-10-03T18:19:08;15.00;99.90
7796;DHT22;3942;51.518;6.912;2022-10-03T18:24:23;15.10;99.90
7796;DHT22;3942;51.518;6.912;2022-10-03T18:29:30;15.00;99.90
7796;DHT22;3942;51.518;6.912;2022-10-03T18:34:40;14.90;99.90
7796;DHT22;3942;51.518;6.912;2022-10-03T18:39:45;14.80;99.90
7796;DHT22;3942;51.518;6.912;2022-10-03T18:49:59;15.00;99.90
7796;DHT22;3942;51.518;6.912;2022-10-03T19:00:15;14.70;99.90
7796;DHT22;3942;51.518;6.912;2022-10-03T19:10:30;14.90;99.90
7796;DHT22;3942;51.518;6.912;2022-10-03T19:15:43;15.00;99.90
7796;DHT22;3942;51.518;6.912;2022-10-03T19:20:51;15.00;99.90
7796;DHT22;3942;51.518;6.912;2022-10-03T19:25:55;14.90;99.90
7796;DHT22;3942;51.518;6.912;2022-10-03T19:36:08;14.80;99.90
7796;DHT22;3942;51.518;6.912;2022-10-03T19:46:47;14.70;99.90
7796;DHT22;3942;51.518;6.912;2022-10-03T19:51:52;14.60;99.90
7796;DHT22;3942;51.518;6.912;2022-10-03T20:02:20;14.40;1.00
7796;DHT22;3942;51.518;6.912;2022-10-03T20:12:37;14.30;99.90
7796;DHT22;3942;51.518;6.912;2022-10-03T20:32:56;14.20;99.90
7796;DHT22;3942;51.518;6.912;2022-10-03T20:38:03;14.00;99.90
7796;DHT22;3942;51.518;6.912;2022-10-03T20:43:28;14.10;99.90
7796;DHT22;3942;51.518;6.912;2022-10-03T20:48:38;14.10;99.90
7796;DHT22;3942;51.518;6.912;2022-10-03T21:14:15;13.70;1.00
7796;DHT22;3942;51.518;6.912;2022-10-03T21:34:41;14.00;99.90
7796;DHT22;3942;51.518;6.912;2022-10-03T21:39:59;14.00;99.90
7796;DHT22;3942;51.518;6.912;2022-10-03T21:55:31;13.90;99.90
7796;DHT22;3942;51.518;6.912;2022-10-03T22:16:15;13.60;99.90
7796;DHT22;3942;51.518;6.912;2022-10-03T22:21:24;13.50;99.90
7796;DHT22;3942;51.518;6.912;2022-10-03T22:26:31;13.60;99.90
7796;DHT22;3942;51.518;6.912;2022-10-03T22:31:38;13.50;99.90
7796;DHT22;3942;51.518;6.912;2022-10-03T22:36:44;13.40;99.90
7796;DHT22;3942;51.518;6.912;2022-10-03T22:41:49;13.40;99.90
7796;DHT22;3942;51.518;6.912;2022-10-03T22:57:04;13.20;99.90
7796;DHT22;3942;51.518;6.912;2022-10-03T23:02:08;13.10;99.90
7796;DHT22;3942;51.518;6.912;2022-10-03T23:12:36;13.00;99.90
7796;DHT22;3942;51.518;6.912;2022-10-03T23:17:55;13.10;99.90
7796;DHT22;3942;51.518;6.912;2022-10-03T23:28:14;13.20;99.90
7796;DHT22;3942;51.518;6.912;2022-10-03T23:33:47;13.20;99.90
7796;DHT22;3942;51.518;6.912;2022-10-03T23:38:56;13.20;99.90
7796;DHT22;3942;51.518;6.912;2022-10-03T23:44:00;13.10;99.90
7796;DHT22;3942;51.518;6.912;2022-10-03T23:49:02;13.40;99.90
7796;DHT22;3942;51.518;6.912;2022-10-03T23:59:19;13.30;99.90
